Time;durP1;ratioP1;P1;durP2;ratioP2;P2;SDS_P1;SDS_P2;PMS_P1;PMS_P2;Temp;Humidity;BMP_temperature;BMP_pressure;BME280_temperature;BME280_humidity;BME280_pressure;Samples;Min_cycle;Max_cycle;Signal;HPM_P1;HPM_P2
2023/05/11 00:00:30;;;;;;;28.30;15.75;;;11.90;99.90;;;;;;4994164;28;20082;-64
2023/05/11 00:02:56;;;;;;;30.48;16.23;;;11.90;99.90;;;;;;4995135;28;20089;-64
2023/05/11 00:05:22;;;;;;;30.63;16.88;;;11.90;99.90;;;;;;4995719;28;20089;-64
2023/05/11 00:07:47;;;;;;;30.45;16.48;;;11.90;99.90;;;;;;4995149;28;20085;-64
2023/05/11 00:10:13;;;;;;;30.17;16.05;;;11.90;99.90;;;;;;4993934;28;20050;-64
2023/05/11 00:12:39;;;;;;;30.58;15.70;;;11.90;99.90;;;;;;4993824;28;20047;-65
2023/05/11 00:15:05;;;;;;;29.92;15.65;;;11.90;99.90;;;;;;4995057;28;20054;-64
2023/05/11 00:17:31;;;;;;;31.38;15.75;;;11.90;99.90;;;;;;4993986;28;20053;-64
2023/05/11 00:19:57;;;;;;;30.80;16.45;;;11.90;99.90;;;;;;4996489;28;20050;-64
2023/05/11 00:22:22;;;;;;;33.20;15.32;;;11.90;99.90;;;;;;4996600;28;20046;-65
2023/05/11 00:24:48;;;;;;;32.28;15.98;;;11.80;99.90;;;;;;4994987;28;20046;-65
2023/05/11 00:27:13;;;;;;;28.90;15.63;;;11.80;99.90;;;;;;4995082;28;20128;-65
2023/05/11 00:29:39;;;;;;;27.58;14.43;;;11.90;99.90;;;;;;4995150;28;20047;-65
2023/05/11 00:32:05;;;;;;;28.77;14.95;;;11.80;99.90;;;;;;4994880;28;20124;-65
2023/05/11 00:34:30;;;;;;;25.98;13.77;;;11.80;99.90;;;;;;4994870;28;20048;-64
2023/05/11 00:36:56;;;;;;;25.38;13.63;;;11.80;99.90;;;;;;4994999;28;20052;-65
2023/05/11 00:39:22;;;;;;;21.67;11.85;;;11.80;99.90;;;;;;4993773;28;20478;-65
2023/05/11 00:41:48;;;;;;;22.65;11.55;;;11.80;99.90;;;;;;4993463;28;20039;-64
2023/05/11 00:44:13;;;;;;;21.75;11.73;;;11.80;99.90;;;;;;4994699;28;20089;-63
2023/05/11 00:46:39;;;;;;;24.33;11.90;;;11.80;99.90;;;;;;4994756;28;20042;-64
2023/05/11 00:49:06;;;;;;;25.38;11.80;;;11.80;99.90;;;;;;4994348;28;20152;-64
2023/05/11 00:51:32;;;;;;;27.15;12.75;;;11.80;99.90;;;;;;4994518;28;20121;-64
2023/05/11 00:53:58;;;;;;;27.05;11.43;;;11.80;99.90;;;;;;4994041;28;20133;-65
2023/05/11 00:56:24;;;;;;;28.20;11.18;;;11.80;99.90;;;;;;4995118;28;20082;-64
2023/05/11 00:58:51;;;;;;;26.02;12.05;;;11.80;99.90;;;;;;4994523;28;20525;-64
2023/05/11 01:01:17;;;;;;;24.75;11.43;;;11.80;99.90;;;;;;4993481;28;20103;-64
2023/05/11 01:03:44;;;;;;;21.65;9.85;;;11.80;99.90;;;;;;4994412;28;20463;-64
2023/05/11 01:06:28;;;;;;;28.35;10.30;;;11.80;99.90;;;;;;4994308;28;20058;-64
2023/05/11 01:09:05;;;;;;;22.92;10.80;;;11.70;99.90;;;;;;4994617;28;20053;-63
2023/05/11 01:11:44;;;;;;;22.88;11.13;;;11.70;99.90;;;;;;4995179;28;20074;-63
2023/05/11 01:14:36;;;;;;;21.48;9.85;;;11.70;99.90;;;;;;4994897;28;20046;-64
2023/05/11 01:17:07;;;;;;;21.13;10.30;;;11.80;99.90;;;;;;4994893;28;20382;-64
2023/05/11 01:19:57;;;;;;;19.75;8.68;;;11.70;99.90;;;;;;4995476;28;20117;-64
2023/05/11 01:23:01;;;;;;;16.52;8.20;;;11.70;99.90;;;;;;4993312;28;20042;-65
2023/05/11 01:26:16;;;;;;;15.45;7.75;;;11.70;99.90;;;;;;4996372;28;20053;-65
2023/05/11 01:29:12;;;;;;;15.18;8.00;;;11.70;99.90;;;;;;4975287;28;20060;-64
2023/05/11 01:31:41;;;;;;;17.42;8.15;;;11.70;99.90;;;;;;4997152;28;20490;-64
2023/05/11 01:34:21;;;;;;;14.05;7.18;;;11.70;99.90;;;;;;4998338;28;20137;-64
2023/05/11 01:36:52;;;;;;;13.65;7.53;;;11.60;99.90;;;;;;4997864;28;20074;-65
2023/05/11 01:39:23;;;;;;;14.95;7.35;;;11.60;99.90;;;;;;4998867;28;20056;-64
2023/05/11 01:41:53;;;;;;;14.45;7.57;;;11.60;99.90;;;;;;4998362;28;20389;-65
2023/05/11 01:44:21;;;;;;;14.98;8.43;;;11.60;99.90;;;;;;4997679;28;20082;-65
2023/05/11 01:46:48;;;;;;;15.90;8.75;;;11.60;99.90;;;;;;4997866;28;20409;-65
2023/05/11 01:49:16;;;;;;;14.25;7.32;;;11.60;99.90;;;;;;4997777;28;20085;-64
2023/05/11 01:51:43;;;;;;;12.27;7.22;;;11.60;99.90;;;;;;4998261;28;20050;-65
2023/05/11 01:54:10;;;;;;;14.88;8.02;;;11.60;99.90;;;;;;4997704;28;20418;-64
2023/05/11 01:56:39;;;;;;;16.67;8.48;;;11.60;99.90;;;;;;4997422;28;20149;-65
2023/05/11 01:59:05;;;;;;;15.15;7.85;;;11.60;99.90;;;;;;4997626;28;20054;-64
2023/05/11 02:01:35;;;;;;;16.80;8.65;;;11.60;99.90;;;;;;4997535;28;20125;-64
2023/05/11 02:04:03;;;;;;;17.08;8.30;;;11.50;99.90;;;;;;4997638;28;20057;-64
2023/05/11 02:06:31;;;;;;;16.65;7.72;;;11.50;99.90;;;;;;4980571;28;20474;-67
2023/05/11 02:08:59;;;;;;;14.18;7.05;;;11.50;99.90;;;;;;4997690;28;20104;-64
2023/05/11 02:11:26;;;;;;;14.23;6.80;;;11.50;99.90;;;;;;4997698;28;20047;-64
2023/05/11 02:13:55;;;;;;;12.80;7.10;;;11.40;99.90;;;;;;4996409;28;20122;-64
2023/05/11 02:16:23;;;;;;;14.52;8.25;;;11.40;99.90;;;;;;4997553;28;20108;-65
2023/05/11 02:18:50;;;;;;;19.40;8.50;;;11.40;99.90;;;;;;4996659;28;20620;-64
2023/05/11 02:21:16;;;;;;;25.73;8.70;;;11.40;99.90;;;;;;4996153;28;20482;-63
2023/05/11 02:23:45;;;;;;;31.58;9.75;;;11.40;99.90;;;;;;4996393;28;20039;-64
2023/05/11 02:26:13;;;;;;;35.00;10.98;;;11.40;99.90;;;;;;4996348;28;20049;-64
2023/05/11 02:28:39;;;;;;;35.53;9.07;;;11.30;99.90;;;;;;4997198;28;20046;-64
2023/05/11 02:31:10;;;;;;;31.88;9.90;;;11.30;99.90;;;;;;4997222;28;20180;-64
2023/05/11 02:33:43;;;;;;;24.20;10.77;;;11.30;99.90;;;;;;4997975;28;20382;-65
2023/05/11 02:36:13;;;;;;;64.07;13.07;;;11.40;99.90;;;;;;4978997;28;20053;-65
2023/05/11 02:38:41;;;;;;;54.30;12.48;;;11.30;99.90;;;;;;4996935;28;20054;-64
2023/05/11 02:41:13;;;;;;;26.42;11.57;;;11.40;99.90;;;;;;4996972;28;20054;-64
2023/05/11 02:43:44;;;;;;;21.58;10.68;;;11.30;99.90;;;;;;4997067;28;20049;-64
2023/05/11 02:46:17;;;;;;;31.63;11.52;;;11.40;99.90;;;;;;4997014;28;20052;-64
2023/05/11 02:48:53;;;;;;;33.70;11.60;;;11.40;99.90;;;;;;4996404;28;20050;-65
2023/05/11 02:51:23;;;;;;;26.40;11.15;;;11.40;99.90;;;;;;4997105;28;20045;-64
2023/05/11 02:53:50;;;;;;;33.08;12.02;;;11.40;99.90;;;;;;4997853;28;20054;-63
2023/05/11 02:56:16;;;;;;;52.00;11.57;;;11.40;99.90;;;;;;4996398;28;20058;-64
2023/05/11 02:58:42;;;;;;;35.15;12.25;;;11.40;99.90;;;;;;4995730;28;20111;-64
2023/05/11 03:01:09;;;;;;;31.25;11.73;;;11.40;99.90;;;;;;4996531;28;20478;-65
2023/05/11 03:03:34;;;;;;;33.63;12.50;;;11.40;99.90;;;;;;4997293;28;20046;-65
2023/05/11 03:06:00;;;;;;;44.38;12.23;;;11.40;99.90;;;;;;4996709;28;20077;-64
2023/05/11 03:08:26;;;;;;;38.17;12.80;;;11.40;99.90;;;;;;4995071;28;20113;-64
2023/05/11 03:10:53;;;;;;;43.50;13.18;;;11.40;99.90;;;;;;4996347;28;20050;-65
2023/05/11 03:13:21;;;;;;;34.97;13.10;;;11.40;99.90;;;;;;4996244;28;20046;-63
2023/05/11 03:15:47;;;;;;;30.65;12.50;;;11.40;99.90;;;;;;4995036;28;20182;-65
2023/05/11 03:18:14;;;;;;;29.50;13.18;;;11.40;99.90;;;;;;4996174;28;20104;-65
2023/05/11 03:20:42;;;;;;;29.80;12.15;;;11.40;99.90;;;;;;4996142;28;20061;-65
2023/05/11 03:23:09;;;;;;;28.92;12.82;;;11.40;99.90;;;;;;4996006;28;20054;-65
2023/05/11 03:25:36;;;;;;;36.10;13.13;;;11.40;99.90;;;;;;4996261;28;20617;-64
2023/05/11 03:28:04;;;;;;;30.45;13.10;;;11.40;99.90;;;;;;4996544;28;20042;-64
2023/05/11 03:30:31;;;;;;;32.95;14.60;;;11.40;99.90;;;;;;4995888;28;20046;-64
2023/05/11 03:32:57;;;;;;;29.20;12.95;;;11.50;99.90;;;;;;4995970;28;20061;-64
2023/05/11 03:35:26;;;;;;;31.00;13.23;;;11.50;99.90;;;;;;4995634;28;20050;-64
2023/05/11 03:37:53;;;;;;;27.58;13.13;;;11.50;99.90;;;;;;4995831;28;20042;-63
2023/05/11 03:40:22;;;;;;;29.40;13.77;;;11.50;99.90;;;;;;4996180;28;20050;-64
2023/05/11 03:42:49;;;;;;;23.45;12.18;;;11.50;99.90;;;;;;4994925;28;20102;-63
2023/05/11 03:45:17;;;;;;;21.92;11.55;;;11.50;99.90;;;;;;4996444;28;20113;-64
2023/05/11 03:47:45;;;;;;;24.15;10.57;;;11.50;99.90;;;;;;4995378;28;20069;-64
2023/05/11 03:50:12;;;;;;;21.65;10.10;;;11.50;99.90;;;;;;4995929;28;20061;-64
2023/05/11 03:52:39;;;;;;;25.65;10.50;;;11.50;99.90;;;;;;4996116;28;20054;-63
2023/05/11 03:55:05;;;;;;;22.70;9.90;;;11.50;99.90;;;;;;4995231;28;20066;-63
2023/05/11 03:57:31;;;;;;;29.45;11.43;;;11.50;99.90;;;;;;4995537;28;20069;-64
2023/05/11 03:59:56;;;;;;;22.05;10.32;;;11.50;99.90;;;;;;4994292;28;20043;-64
2023/05/11 04:02:23;;;;;;;23.40;9.73;;;11.60;99.90;;;;;;4994434;28;20231;-64
2023/05/11 04:04:51;;;;;;;27.42;9.95;;;11.50;99.90;;;;;;4995862;28;20050;-64
2023/05/11 04:07:16;;;;;;;26.08;10.32;;;11.50;99.90;;;;;;4995134;28;20050;-65
2023/05/11 04:09:42;;;;;;;23.95;10.02;;;11.60;99.90;;;;;;4995198;28;20048;-65
2023/05/11 04:12:08;;;;;;;25.98;10.48;;;11.60;99.90;;;;;;4995160;28;20082;-64
2023/05/11 04:14:34;;;;;;;24.73;9.55;;;11.60;99.90;;;;;;4995698;28;20497;-64
2023/05/11 04:17:00;;;;;;;29.58;10.55;;;11.60;99.90;;;;;;4995307;28;20050;-64
2023/05/11 04:19:26;;;;;;;28.05;11.27;;;11.60;99.90;;;;;;4995570;28;20050;-64
2023/05/11 04:21:51;;;;;;;23.17;10.18;;;11.60;99.90;;;;;;4994629;28;20544;-64
2023/05/11 04:24:17;;;;;;;20.42;10.65;;;11.60;99.90;;;;;;4993784;28;20058;-64
2023/05/11 04:26:43;;;;;;;31.15;11.18;;;11.60;99.90;;;;;;4993413;28;20054;-65
2023/05/11 04:29:09;;;;;;;26.83;11.18;;;11.60;99.90;;;;;;4995450;28;20050;-65
2023/05/11 04:31:34;;;;;;;24.77;11.20;;;11.60;99.90;;;;;;4994843;28;20039;-64
2023/05/11 04:34:00;;;;;;;25.23;10.90;;;11.60;99.90;;;;;;4994820;28;20042;-64
2023/05/11 04:36:26;;;;;;;24.27;11.50;;;11.60;99.90;;;;;;4994732;28;20474;-64
2023/05/11 04:38:52;;;;;;;23.67;10.75;;;11.60;99.90;;;;;;4994682;28;20046;-64
2023/05/11 04:41:18;;;;;;;25.95;10.02;;;11.60;99.90;;;;;;4995153;28;20466;-64
2023/05/11 04:43:43;;;;;;;20.30;10.20;;;11.60;99.90;;;;;;4995201;28;20054;-64
2023/05/11 04:46:09;;;;;;;19.02;9.52;;;11.60;99.90;;;;;;4995461;28;20045;-64
2023/05/11 04:48:35;;;;;;;17.50;9.40;;;11.60;99.90;;;;;;4994560;28;20050;-64
2023/05/11 04:51:04;;;;;;;18.10;9.20;;;11.60;99.90;;;;;;4994630;28;20496;-64
2023/05/11 04:53:30;;;;;;;18.98;9.00;;;11.70;99.90;;;;;;4993372;28;20108;-64
2023/05/11 04:55:56;;;;;;;13.10;7.00;;;11.70;99.90;;;;;;4994642;28;20050;-64
2023/05/11 04:58:22;;;;;;;14.07;8.25;;;11.70;99.90;;;;;;4993717;28;20042;-65
2023/05/11 05:00:47;;;;;;;13.57;7.65;;;11.70;99.90;;;;;;4994359;28;20054;-64
2023/05/11 05:03:13;;;;;;;14.80;8.05;;;11.70;99.90;;;;;;4994581;28;20093;-64
2023/05/11 05:05:39;;;;;;;13.45;7.35;;;11.70;99.90;;;;;;4995124;28;20081;-64
2023/05/11 05:08:06;;;;;;;12.70;7.63;;;11.70;99.90;;;;;;4994170;28;20093;-64
2023/05/11 05:10:32;;;;;;;10.63;7.00;;;11.70;99.90;;;;;;4993948;28;20489;-64
2023/05/11 05:12:57;;;;;;;10.30;6.72;;;11.70;99.90;;;;;;4994323;28;20076;-64
2023/05/11 05:15:23;;;;;;;10.70;6.43;;;11.70;99.90;;;;;;4993950;28;20102;-64
2023/05/11 05:17:49;;;;;;;13.38;7.63;;;11.70;99.90;;;;;;4994166;28;20054;-64
2023/05/11 05:20:15;;;;;;;9.85;5.97;;;11.70;99.90;;;;;;4994698;28;20046;-64
2023/05/11 05:22:40;;;;;;;11.77;6.70;;;11.70;99.90;;;;;;4992920;28;20050;-64
2023/05/11 05:25:07;;;;;;;10.07;6.18;;;11.70;99.90;;;;;;4993060;28;20132;-64
2023/05/11 05:27:33;;;;;;;9.65;6.03;;;11.80;99.90;;;;;;4994752;28;20089;-64
2023/05/11 05:29:59;;;;;;;11.38;7.22;;;11.80;99.90;;;;;;4993100;28;20504;-64
2023/05/11 05:32:24;;;;;;;9.13;5.93;;;11.80;99.90;;;;;;4994252;28;20039;-64
2023/05/11 05:34:50;;;;;;;12.40;6.72;;;11.80;99.90;;;;;;4994137;28;20050;-64
2023/05/11 05:37:16;;;;;;;11.23;7.45;;;11.80;99.90;;;;;;4994347;28;20061;-64
2023/05/11 05:39:41;;;;;;;12.38;7.20;;;11.80;99.90;;;;;;4994148;28;20052;-64
2023/05/11 05:42:07;;;;;;;14.60;8.48;;;11.80;99.90;;;;;;4994082;28;20054;-65
2023/05/11 05:44:33;;;;;;;12.93;8.00;;;11.80;99.90;;;;;;4993865;28;20108;-64
2023/05/11 05:46:58;;;;;;;13.90;8.23;;;11.80;99.90;;;;;;4994870;28;20062;-64
2023/05/11 05:49:24;;;;;;;13.40;7.70;;;11.80;99.90;;;;;;4994081;28;20109;-64
2023/05/11 05:51:50;;;;;;;14.82;8.45;;;11.80;99.90;;;;;;4992858;28;20042;-65
2023/05/11 05:54:16;;;;;;;16.35;8.93;;;11.80;99.90;;;;;;4993791;28;20058;-65
2023/05/11 05:56:43;;;;;;;14.35;8.32;;;11.80;99.90;;;;;;4993948;28;20050;-65
2023/05/11 05:59:09;;;;;;;15.07;9.05;;;11.80;99.90;;;;;;4993992;28;20054;-64
2023/05/11 06:01:36;;;;;;;13.27;7.82;;;11.80;99.90;;;;;;4993905;28;20071;-65
2023/05/11 06:04:02;;;;;;;11.70;7.82;;;11.80;99.90;;;;;;4993930;28;20051;-64
2023/05/11 06:06:28;;;;;;;10.18;6.30;;;11.80;99.90;;;;;;4992949;28;20408;-64
2023/05/11 06:08:55;;;;;;;9.75;6.53;;;11.80;99.90;;;;;;4993708;28;20046;-64
2023/05/11 06:11:21;;;;;;;9.85;6.82;;;11.80;99.90;;;;;;4995538;28;20050;-64
2023/05/11 06:13:47;;;;;;;7.78;5.43;;;11.80;99.90;;;;;;4997387;28;20374;-64
2023/05/11 06:16:12;;;;;;;9.95;6.53;;;11.90;99.90;;;;;;4997372;28;20104;-64
2023/05/11 06:18:38;;;;;;;9.10;6.07;;;11.80;99.90;;;;;;4996089;28;20093;-64
2023/05/11 06:21:04;;;;;;;10.18;6.28;;;11.90;99.90;;;;;;4997706;28;20049;-64
2023/05/11 06:23:29;;;;;;;9.60;5.95;;;11.90;99.90;;;;;;4997207;28;20053;-64
2023/05/11 06:25:55;;;;;;;11.55;6.95;;;11.90;99.90;;;;;;4996259;28;20039;-64
2023/05/11 06:28:23;;;;;;;10.38;6.53;;;11.90;99.90;;;;;;4996817;28;20560;-64
2023/05/11 06:30:49;;;;;;;13.05;7.32;;;12.00;99.90;;;;;;4996054;28;20085;-64
2023/05/11 06:33:14;;;;;;;13.70;7.88;;;12.00;99.90;;;;;;4997088;28;20089;-64
2023/05/11 06:35:40;;;;;;;10.13;6.47;;;11.90;99.90;;;;;;4996986;28;20104;-64
2023/05/11 06:38:06;;;;;;;10.35;6.10;;;12.00;99.90;;;;;;4997092;28;20046;-64
2023/05/11 06:40:31;;;;;;;10.35;6.50;;;12.00;99.90;;;;;;4995997;28;20057;-64
2023/05/11 06:42:57;;;;;;;9.68;6.10;;;12.00;99.90;;;;;;4995586;28;20406;-64
2023/05/11 06:45:23;;;;;;;8.68;5.63;;;12.00;99.90;;;;;;4996834;28;20053;-64
2023/05/11 06:47:48;;;;;;;7.45;5.28;;;12.00;99.90;;;;;;4997599;28;20054;-64
2023/05/11 06:50:14;;;;;;;7.43;4.80;;;12.10;99.90;;;;;;4996081;28;20387;-64
2023/05/11 06:52:40;;;;;;;6.90;4.90;;;12.10;99.90;;;;;;4997438;28;20042;-64
2023/05/11 06:55:06;;;;;;;8.20;5.35;;;12.10;99.90;;;;;;4996673;28;20057;-64
2023/05/11 06:57:32;;;;;;;8.35;5.28;;;12.10;99.90;;;;;;4996543;28;20050;-64
2023/05/11 06:59:57;;;;;;;7.47;4.72;;;12.20;99.90;;;;;;4996296;28;20048;-64
2023/05/11 07:02:23;;;;;;;7.13;4.95;;;12.20;99.90;;;;;;4996883;28;20489;-64
2023/05/11 07:04:49;;;;;;;7.72;4.88;;;12.30;99.90;;;;;;4996296;28;20129;-64
2023/05/11 07:07:15;;;;;;;7.93;5.20;;;12.40;99.90;;;;;;4996352;28;20058;-64
2023/05/11 07:09:41;;;;;;;6.72;4.60;;;12.40;99.90;;;;;;4996331;28;20046;-64
2023/05/11 07:12:07;;;;;;;8.50;5.45;;;12.40;99.90;;;;;;4978994;28;20056;-63
2023/05/11 07:14:32;;;;;;;7.57;5.22;;;12.50;99.90;;;;;;4995574;28;20054;-64
2023/05/11 07:16:58;;;;;;;7.97;5.47;;;12.50;99.90;;;;;;4995939;28;20089;-64
2023/05/11 07:19:24;;;;;;;8.88;5.68;;;12.50;99.90;;;;;;4996629;28;20051;-64
2023/05/11 07:21:51;;;;;;;10.15;6.72;;;12.50;99.90;;;;;;4978047;28;20375;-64
2023/05/11 07:24:16;;;;;;;10.98;7.00;;;12.60;99.90;;;;;;4995048;28;20125;-64
2023/05/11 07:26:42;;;;;;;10.10;6.47;;;12.50;99.90;;;;;;4996056;28;20129;-64
2023/05/11 07:29:08;;;;;;;9.73;6.47;;;12.60;99.90;;;;;;4996061;28;20061;-64
2023/05/11 07:31:35;;;;;;;10.05;6.43;;;12.50;99.90;;;;;;4996229;28;20046;-64
2023/05/11 07:34:01;;;;;;;8.90;6.13;;;12.50;99.90;;;;;;4995736;28;20486;-64
2023/05/11 07:36:26;;;;;;;9.00;6.03;;;12.60;99.90;;;;;;4994832;28;20049;-63
2023/05/11 07:38:52;;;;;;;9.23;6.43;;;12.60;99.90;;;;;;4995888;28;20093;-64
2023/05/11 07:41:20;;;;;;;8.35;5.63;;;12.60;99.90;;;;;;4996434;28;20467;-64
2023/05/11 07:43:45;;;;;;;7.70;4.85;;;12.70;99.90;;;;;;4994672;28;20046;-64
2023/05/11 07:46:11;;;;;;;7.90;5.28;;;12.70;99.90;;;;;;4995816;28;20047;-64
2023/05/11 07:48:37;;;;;;;7.13;4.90;;;12.80;99.90;;;;;;4996002;28;20061;-64
2023/05/11 07:51:02;;;;;;;6.82;4.63;;;12.90;99.90;;;;;;4995544;28;20453;-64
2023/05/11 07:53:28;;;;;;;6.72;4.32;;;12.90;99.90;;;;;;4995670;28;20125;-64
2023/05/11 07:55:54;;;;;;;7.40;4.90;;;12.90;99.90;;;;;;4996350;28;20058;-64
2023/05/11 07:58:20;;;;;;;6.90;4.72;;;12.90;99.90;;;;;;4995586;28;20050;-64
2023/05/11 08:00:45;;;;;;;7.43;5.00;;;13.00;99.90;;;;;;4978161;28;20053;-64
2023/05/11 08:03:11;;;;;;;6.75;4.80;;;13.00;99.90;;;;;;4995065;28;20129;-64
2023/05/11 08:05:37;;;;;;;6.68;4.10;;;13.10;99.90;;;;;;4995444;28;20054;-64
2023/05/11 08:08:04;;;;;;;6.55;4.68;;;13.10;99.90;;;;;;4995292;28;20053;-64
2023/05/11 08:10:30;;;;;;;6.22;4.35;;;13.20;99.90;;;;;;4995299;28;20049;-64
2023/05/11 08:12:57;;;;;;;7.55;4.28;;;13.30;99.90;;;;;;4978229;28;20054;-64
2023/05/11 08:15:23;;;;;;;6.45;4.50;;;13.30;99.90;;;;;;4994067;28;20046;-64
2023/05/11 08:17:49;;;;;;;6.15;4.25;;;13.40;99.90;;;;;;4994039;28;20129;-64
2023/05/11 08:20:15;;;;;;;5.68;3.97;;;13.40;99.90;;;;;;4994178;28;20065;-64
2023/05/11 08:22:40;;;;;;;5.68;3.80;;;13.40;99.90;;;;;;4995804;28;20042;-64
2023/05/11 08:25:07;;;;;;;6.43;4.28;;;13.40;99.90;;;;;;4995075;28;20086;-64
2023/05/11 08:27:32;;;;;;;6.07;4.10;;;13.40;99.90;;;;;;4995060;28;20057;-65
2023/05/11 08:29:58;;;;;;;6.80;3.80;;;13.40;99.90;;;;;;4995053;28;20054;-65
2023/05/11 08:32:24;;;;;;;6.47;4.32;;;13.40;99.90;;;;;;4993731;28;20046;-64
2023/05/11 08:34:50;;;;;;;5.28;3.50;;;13.40;99.90;;;;;;4994757;28;20046;-64
2023/05/11 08:37:15;;;;;;;6.82;4.00;;;13.40;99.90;;;;;;4995064;28;20139;-64
2023/05/11 08:39:41;;;;;;;6.07;3.92;;;13.40;99.90;;;;;;4995364;28;20085;-64
2023/05/11 08:42:08;;;;;;;5.22;3.85;;;13.50;99.90;;;;;;4994772;28;20080;-64
2023/05/11 08:44:36;;;;;;;5.32;3.83;;;13.50;99.90;;;;;;4994758;28;20046;-64
2023/05/11 08:47:05;;;;;;;5.85;3.75;;;13.50;99.90;;;;;;4994044;28;20060;-64
2023/05/11 08:49:31;;;;;;;4.93;3.35;;;13.50;99.90;;;;;;4994705;28;20050;-64
2023/05/11 08:51:57;;;;;;;5.65;3.53;;;13.50;99.90;;;;;;4994243;28;20085;-64
2023/05/11 08:54:22;;;;;;;5.57;3.80;;;13.60;99.90;;;;;;4994974;28;20455;-65
2023/05/11 08:56:50;;;;;;;6.32;4.28;;;13.60;99.90;;;;;;4994032;28;20089;-65
2023/05/11 08:59:17;;;;;;;8.57;4.60;;;13.70;99.90;;;;;;4994597;28;20053;-65
2023/05/11 09:01:44;;;;;;;7.07;4.50;;;13.70;99.90;;;;;;4994963;28;20060;-65
2023/05/11 09:04:12;;;;;;;6.72;4.60;;;13.70;99.90;;;;;;4994479;28;20050;-66
2023/05/11 09:06:38;;;;;;;6.70;4.32;;;13.70;99.90;;;;;;4994441;28;20119;-65
2023/05/11 09:09:04;;;;;;;6.35;4.72;;;13.70;99.90;;;;;;4993748;28;20058;-66
2023/05/11 09:11:30;;;;;;;6.70;4.43;;;13.70;99.90;;;;;;4994344;28;20069;-65
2023/05/11 09:13:56;;;;;;;6.70;4.60;;;13.70;99.90;;;;;;4993778;28;20085;-66
2023/05/11 09:16:22;;;;;;;6.80;4.65;;;13.80;99.90;;;;;;4976935;28;20061;-65
2023/05/11 09:18:52;;;;;;;6.57;4.25;;;13.80;99.90;;;;;;4993174;28;20050;-65
2023/05/11 09:21:19;;;;;;;6.43;4.20;;;13.80;99.90;;;;;;4993543;28;20061;-66
2023/05/11 09:23:48;;;;;;;6.05;4.10;;;13.80;99.90;;;;;;4993972;28;20486;-65
2023/05/11 09:26:24;;;;;;;6.35;4.10;;;13.90;99.90;;;;;;4993627;28;20393;-65
2023/05/11 09:28:51;;;;;;;6.47;4.28;;;13.90;99.90;;;;;;4994780;28;20053;-65
2023/05/11 09:31:36;;;;;;;7.18;4.75;;;13.90;99.90;;;;;;4994259;28;20046;-65
2023/05/11 09:34:12;;;;;;;6.45;4.15;;;13.90;99.90;;;;;;4994674;28;20391;-65
2023/05/11 09:36:39;;;;;;;7.32;4.45;;;13.90;99.90;;;;;;4993213;28;20086;-65
2023/05/11 09:39:05;;;;;;;5.72;4.10;;;13.90;99.90;;;;;;4992909;28;20058;-65
2023/05/11 09:41:31;;;;;;;6.95;4.43;;;14.00;99.90;;;;;;4994816;28;20042;-66
2023/05/11 09:44:13;;;;;;;5.95;4.00;;;14.00;99.90;;;;;;4992977;28;20398;-65
2023/05/11 09:46:44;;;;;;;6.43;4.13;;;14.00;99.90;;;;;;4997208;28;20054;-66
2023/05/11 09:49:11;;;;;;;5.88;4.18;;;14.00;99.90;;;;;;4996883;28;20181;-65
2023/05/11 09:51:39;;;;;;;6.00;3.75;;;14.00;99.90;;;;;;4998345;28;20061;-67
2023/05/11 09:54:19;;;;;;;6.25;4.15;;;14.10;99.90;;;;;;4997737;28;20151;-65
2023/05/11 09:56:51;;;;;;;4.95;3.80;;;14.20;99.90;;;;;;4997144;28;20145;-65
2023/05/11 09:59:36;;;;;;;5.38;4.03;;;14.30;99.90;;;;;;4997647;28;20492;-65
2023/05/11 10:02:34;;;;;;;5.97;3.65;;;14.40;99.90;;;;;;4997037;28;20042;-65
2023/05/11 10:05:09;;;;;;;7.45;3.95;;;14.50;99.90;;;;;;4975032;28;20074;-65
2023/05/11 10:07:35;;;;;;;4.55;3.40;;;14.50;99.90;;;;;;4996346;28;20050;-65
2023/05/11 10:10:08;;;;;;;5.78;3.75;;;14.50;99.90;;;;;;4997559;28;20054;-65
2023/05/11 10:12:36;;;;;;;4.97;3.30;;;14.60;99.90;;;;;;4996918;28;20042;-65
2023/05/11 10:15:08;;;;;;;5.63;3.33;;;14.70;99.90;;;;;;4995906;28;20403;-65
2023/05/11 10:17:34;;;;;;;4.45;3.10;;;14.70;99.90;;;;;;4996433;28;20050;-65
2023/05/11 10:20:02;;;;;;;5.15;3.47;;;14.80;99.90;;;;;;4997919;28;20050;-65
2023/05/11 10:22:29;;;;;;;5.80;3.55;;;14.80;99.90;;;;;;4997288;28;20050;-65
2023/05/11 10:24:58;;;;;;;4.93;3.25;;;14.80;99.90;;;;;;4997850;28;20449;-65
2023/05/11 10:27:24;;;;;;;4.13;3.00;;;14.90;99.90;;;;;;4997195;28;20042;-66
2023/05/11 10:29:50;;;;;;;4.80;3.03;;;15.00;99.90;;;;;;4996065;28;20093;-68
2023/05/11 10:32:18;;;;;;;4.60;2.92;;;15.10;99.90;;;;;;4996066;28;20050;-65
2023/05/11 10:34:49;;;;;;;3.97;2.53;;;15.20;99.90;;;;;;4997395;28;20050;-65
2023/05/11 10:37:15;;;;;;;3.80;2.83;;;15.30;99.90;;;;;;4997639;28;20050;-66
2023/05/11 10:39:42;;;;;;;3.95;2.40;;;15.30;99.90;;;;;;4996919;28;20057;-66
2023/05/11 10:42:29;;;;;;;3.85;2.38;;;15.40;99.90;;;;;;4995692;28;20533;-66
2023/05/11 10:45:01;;;;;;;3.15;2.53;;;15.50;99.90;;;;;;4997021;28;20054;-65
2023/05/11 10:48:11;;;;;;;3.55;2.53;;;15.60;99.90;;;;;;4996600;28;20129;-66
2023/05/11 10:51:10;;;;;;;3.45;2.50;;;15.60;99.90;;;;;;4996694;28;20486;-65
2023/05/11 10:53:44;;;;;;;2.97;2.40;;;15.70;99.90;;;;;;4997645;28;20050;-65
2023/05/11 10:56:39;;;;;;;3.45;2.00;;;15.80;99.90;;;;;;4994739;28;20065;-66
2023/05/11 10:59:37;;;;;;;2.80;1.92;;;15.80;99.90;;;;;;4960412;28;20059;-65
2023/05/11 11:02:03;;;;;;;3.45;2.30;;;15.80;99.90;;;;;;4996592;28;20046;-65
2023/05/11 11:04:49;;;;;;;3.78;2.60;;;15.80;99.90;;;;;;4996478;28;20046;-66
2023/05/11 11:07:20;;;;;;;2.35;1.67;;;15.70;99.90;;;;;;4996542;28;20046;-66
2023/05/11 11:09:51;;;;;;;3.13;2.05;;;15.70;99.90;;;;;;4996051;28;20042;-65
2023/05/11 11:12:18;;;;;;;3.83;2.40;;;15.70;99.90;;;;;;4996113;28;20077;-66
2023/05/11 11:14:57;;;;;;;2.45;2.13;;;15.70;99.90;;;;;;4996334;28;20046;-65
2023/05/11 11:17:26;;;;;;;2.35;1.90;;;15.80;99.90;;;;;;4996348;28;20097;-65
2023/05/11 11:19:52;;;;;;;3.63;1.60;;;15.80;99.90;;;;;;4995498;28;20446;-66
2023/05/11 11:22:33;;;;;;;2.08;1.88;;;15.90;99.90;;;;;;4995951;28;20038;-67
2023/05/11 11:25:00;;;;;;;1.92;1.50;;;15.90;99.90;;;;;;4995421;28;20082;-66
2023/05/11 11:27:44;;;;;;;2.92;1.80;;;15.90;99.90;;;;;;4996575;28;20042;-66
2023/05/11 11:30:20;;;;;;;2.22;1.60;;;15.90;99.90;;;;;;4995993;28;20391;-67
2023/05/11 11:32:47;;;;;;;1.95;1.48;;;15.90;99.90;;;;;;4996044;28;20209;-66
2023/05/11 11:35:41;;;;;;;2.00;1.80;;;15.90;99.90;;;;;;4994733;28;20498;-66
2023/05/11 11:38:12;;;;;;;2.45;1.95;;;16.00;99.90;;;;;;5006679;28;20391;-66
2023/05/11 11:40:40;;;;;;;2.08;1.88;;;16.00;99.90;;;;;;4996392;28;20054;-66
2023/05/11 11:43:13;;;;;;;3.45;1.85;;;16.00;99.90;;;;;;4996193;28;20386;-66
2023/05/11 11:46:01;;;;;;;2.60;1.90;;;16.00;99.90;;;;;;4994719;28;20495;-66
2023/05/11 11:48:46;;;;;;;3.67;1.95;;;16.00;99.90;;;;;;4995721;28;20053;-66
2023/05/11 11:51:12;;;;;;;1.73;1.50;;;16.00;99.90;;;;;;4996175;28;20038;-66
2023/05/11 11:53:56;;;;;;;3.10;2.03;;;16.00;99.90;;;;;;4995139;28;20410;-66
2023/05/11 11:56:22;;;;;;;2.28;1.65;;;16.00;99.90;;;;;;4995816;28;20050;-67
2023/05/11 11:58:48;;;;;;;2.05;1.52;;;16.00;99.90;;;;;;4995476;28;20046;-66
2023/05/11 12:01:18;;;;;;;3.15;1.80;;;15.90;99.90;;;;;;4996026;28;20050;-66
2023/05/11 12:03:46;;;;;;;4.00;2.88;;;16.00;99.90;;;;;;4994458;28;20478;-67
2023/05/11 12:06:14;;;;;;;3.63;2.33;;;16.00;99.90;;;;;;4995278;28;20085;-67
2023/05/11 12:08:41;;;;;;;2.33;1.88;;;16.00;99.90;;;;;;4994607;28;20553;-66
2023/05/11 12:11:07;;;;;;;2.08;1.73;;;16.00;99.90;;;;;;4994274;28;20113;-66
2023/05/11 12:13:34;;;;;;;2.22;1.50;;;16.10;99.90;;;;;;4994042;28;20050;-66
2023/05/11 12:16:14;;;;;;;3.33;1.92;;;16.10;99.90;;;;;;4995274;28;20390;-65
2023/05/11 12:18:42;;;;;;;3.58;2.30;;;16.20;99.90;;;;;;4995163;28;20065;-65
2023/05/11 12:21:21;;;;;;;2.78;2.20;;;16.20;99.90;;;;;;4994765;28;20513;-66
2023/05/11 12:23:54;;;;;;;3.58;1.95;;;16.20;99.90;;;;;;4994988;28;20042;-66
2023/05/11 12:26:22;;;;;;;2.72;2.03;;;16.20;99.90;;;;;;4994328;28;20046;-66
2023/05/11 12:28:49;;;;;;;3.70;2.30;;;16.20;99.90;;;;;;4977423;28;20046;-65
2023/05/11 12:31:16;;;;;;;4.35;3.00;;;16.20;99.90;;;;;;4994804;28;20038;-66
2023/05/11 12:33:49;;;;;;;3.63;3.28;;;16.20;99.90;;;;;;4993766;28;20054;-65
2023/05/11 12:36:16;;;;;;;4.15;3.03;;;16.30;99.90;;;;;;4994867;28;20097;-66
2023/05/11 12:38:46;;;;;;;4.25;3.45;;;16.30;99.90;;;;;;4993651;28;20046;-66
2023/05/11 12:41:21;;;;;;;4.38;2.95;;;16.30;99.90;;;;;;4994841;28;20124;-66
2023/05/11 12:43:51;;;;;;;3.65;2.92;;;16.20;99.90;;;;;;4993686;28;20108;-66
2023/05/11 12:46:18;;;;;;;6.43;2.90;;;16.20;99.90;;;;;;4995545;28;20054;-66